Time;durP1;ratioP1;P1;durP2;ratioP2;P2;SDS_P1;SDS_P2;PMS_P1;PMS_P2;Temp;Humidity;BMP_temperature;BMP_pressure;BME280_temperature;BME280_humidity;BME280_pressure;Samples;Min_cycle;Max_cycle;Signal;HPM_P1;HPM_P2
2022/01/09 16:14:59;;;;;;;12.98;2.38;;;14.00;76.70;;;;;;2274710;62;29996;-68
2022/01/09 16:17:26;;;;;;;16.17;3.30;;;14.00;75.90;;;;;;2274698;62;30103;-67
2022/01/09 16:19:52;;;;;;;14.85;2.53;;;14.10;77.10;;;;;;2274631;62;30125;-67
2022/01/09 16:22:18;;;;;;;18.13;3.20;;;14.20;77.90;;;;;;2274566;62;30805;-68
2022/01/09 16:24:44;;;;;;;13.68;2.50;;;14.20;78.50;;;;;;2267342;62;30623;-68
2022/01/09 16:27:10;;;;;;;12.82;2.58;;;14.30;79.20;;;;;;2274845;62;30229;-68
2022/01/09 16:29:36;;;;;;;15.90;2.90;;;14.40;79.50;;;;;;2274389;62;30334;-72
2022/01/09 16:32:03;;;;;;;7.75;2.40;;;14.40;80.00;;;;;;2270935;62;30954;-70
2022/01/09 16:34:29;;;;;;;14.15;2.10;;;14.50;81.10;;;;;;2271184;62;30138;-69
2022/01/09 16:36:55;;;;;;;5.07;1.90;;;14.70;80.40;;;;;;2267081;62;32020;-69
2022/01/09 16:39:21;;;;;;;10.95;1.80;;;14.80;80.00;;;;;;2269998;62;30382;-69
2022/01/09 16:41:48;;;;;;;5.97;1.52;;;15.00;79.80;;;;;;2271881;62;32211;-70
2022/01/09 16:44:13;;;;;;;4.63;1.67;;;15.00;79.70;;;;;;2271858;62;30992;-70
2022/01/09 16:46:40;;;;;;;5.65;1.52;;;15.10;79.60;;;;;;2269031;62;30091;-70
2022/01/09 16:49:06;;;;;;;5.57;1.80;;;15.20;79.60;;;;;;2259132;62;30167;-68
2022/01/09 16:51:32;;;;;;;8.48;1.80;;;15.30;79.50;;;;;;2257791;62;31885;-70
2022/01/09 16:53:58;;;;;;;4.40;1.67;;;15.30;79.30;;;;;;2257634;62;30110;-70
2022/01/09 16:56:26;;;;;;;6.18;1.65;;;15.30;79.20;;;;;;2265441;62;29995;-70
2022/01/09 16:58:52;;;;;;;4.47;1.42;;;15.40;79.10;;;;;;2264858;62;30146;-70
2022/01/09 17:01:19;;;;;;;4.60;1.55;;;15.40;79.00;;;;;;2265318;62;30353;-71
2022/01/09 17:03:46;;;;;;;3.47;1.15;;;15.40;78.90;;;;;;2265338;62;30258;-71
2022/01/09 17:06:13;;;;;;;3.53;1.00;;;15.50;78.80;;;;;;2265343;62;30182;-70
2022/01/09 17:08:40;;;;;;;12.18;1.85;;;15.50;78.70;;;;;;2265561;62;30668;-71
2022/01/09 17:11:07;;;;;;;4.50;1.40;;;15.50;78.50;;;;;;2257343;62;31057;-70
2022/01/09 17:13:33;;;;;;;2.58;1.85;;;15.60;78.50;;;;;;2269298;62;30464;-71
2022/01/09 17:15:59;;;;;;;2.00;1.30;;;15.60;78.30;;;;;;2272940;62;30228;-71
2022/01/09 17:18:27;;;;;;;2.75;1.58;;;15.60;78.10;;;;;;2273318;62;30082;-71
2022/01/09 17:20:55;;;;;;;5.30;1.58;;;15.60;78.00;;;;;;2262692;62;30192;-71
2022/01/09 17:23:22;;;;;;;3.28;1.35;;;15.60;77.90;;;;;;2270106;62;30158;-72
2022/01/09 17:25:49;;;;;;;2.67;1.38;;;15.70;77.70;;;;;;2256168;63;30426;-71
2022/01/09 17:28:15;;;;;;;4.28;1.25;;;15.70;77.60;;;;;;2253223;63;30073;-72
2022/01/09 17:30:40;;;;;;;2.30;1.85;;;15.70;77.50;;;;;;2252384;63;30214;-72
2022/01/09 17:33:07;;;;;;;2.65;1.42;;;15.70;77.40;;;;;;2259497;63;31857;-72
2022/01/09 17:35:32;;;;;;;2.67;1.17;;;15.70;77.30;;;;;;2259987;63;30226;-72
2022/01/09 17:37:58;;;;;;;3.83;1.33;;;15.70;77.20;;;;;;2265152;62;30326;-72
2022/01/09 17:40:24;;;;;;;3.30;1.23;;;15.80;77.20;;;;;;2267636;62;30725;-72
2022/01/09 17:42:50;;;;;;;3.45;1.40;;;15.70;76.90;;;;;;2267796;62;30421;-68
2022/01/09 17:45:16;;;;;;;7.90;1.77;;;15.70;77.00;;;;;;2262066;62;30335;-70
2022/01/09 17:47:42;;;;;;;1.92;1.50;;;15.70;76.90;;;;;;2259399;62;30447;-69
2022/01/09 17:50:11;;;;;;;4.82;2.10;;;15.70;77.90;;;;;;2259806;63;30081;-71
2022/01/09 17:52:36;;;;;;;2.40;1.50;;;15.80;77.30;;;;;;2260478;62;30205;-70
2022/01/09 17:55:02;;;;;;;5.45;1.98;;;15.80;77.30;;;;;;2266215;62;30270;-70
2022/01/09 17:57:28;;;;;;;6.07;2.50;;;15.90;77.30;;;;;;2260172;62;30295;-69
2022/01/09 17:59:54;;;;;;;7.30;2.80;;;15.90;77.20;;;;;;2267173;62;30878;-70
2022/01/09 18:02:22;;;;;;;6.55;2.90;;;16.00;77.20;;;;;;2267100;62;30204;-70
2022/01/09 18:04:48;;;;;;;4.75;2.50;;;16.10;77.10;;;;;;2267692;62;30174;-70
2022/01/09 18:07:15;;;;;;;3.20;2.20;;;16.20;77.00;;;;;;2260239;62;30230;-70
2022/01/09 18:09:41;;;;;;;3.95;2.10;;;16.30;77.10;;;;;;2267659;62;30866;-70
2022/01/09 18:12:07;;;;;;;11.55;2.38;;;16.30;76.70;;;;;;2267724;62;30522;-71
2022/01/09 18:14:33;;;;;;;4.05;2.10;;;16.40;76.50;;;;;;2258500;63;30414;-70
2022/01/09 18:16:59;;;;;;;4.43;1.90;;;16.50;76.30;;;;;;2259640;63;30085;-69
2022/01/09 18:19:26;;;;;;;4.07;2.40;;;16.60;76.10;;;;;;2259518;63;31170;-70
2022/01/09 18:21:52;;;;;;;4.72;1.70;;;16.70;76.00;;;;;;2258456;62;32273;-71
2022/01/09 18:24:20;;;;;;;2.90;2.03;;;16.70;75.90;;;;;;2258359;63;30299;-68
2022/01/09 18:26:46;;;;;;;5.15;2.10;;;16.70;75.60;;;;;;2254673;62;30419;-70
2022/01/09 18:29:13;;;;;;;1.55;1.30;;;16.80;75.60;;;;;;2247623;63;31447;-71
2022/01/09 18:31:41;;;;;;;3.00;1.42;;;16.80;75.50;;;;;;2252355;62;31266;-71
2022/01/09 18:34:07;;;;;;;2.25;1.63;;;16.90;75.30;;;;;;2254893;63;32291;-70
2022/01/09 18:36:33;;;;;;;1.73;1.30;;;16.90;75.30;;;;;;2251114;63;30342;-71
2022/01/09 18:38:59;;;;;;;1.70;1.42;;;17.00;75.80;;;;;;2251502;63;30251;-69
2022/01/09 18:41:26;;;;;;;2.72;1.45;;;17.00;74.90;;;;;;2250672;63;31182;-70
2022/01/09 18:43:52;;;;;;;2.10;1.50;;;17.10;74.70;;;;;;2251007;63;30225;-70
2022/01/09 18:46:18;;;;;;;3.28;1.30;;;17.10;74.50;;;;;;2256518;63;30161;-69
2022/01/09 18:48:44;;;;;;;2.15;1.30;;;17.20;74.40;;;;;;2259196;63;31040;-68
2022/01/09 18:51:10;;;;;;;3.17;1.40;;;17.20;74.20;;;;;;2258996;62;30152;-68
2022/01/09 18:53:36;;;;;;;3.85;1.10;;;17.20;74.10;;;;;;2259146;63;30124;-69
2022/01/09 18:56:02;;;;;;;1.35;1.15;;;17.20;74.00;;;;;;2259054;63;30128;-69
2022/01/09 18:58:28;;;;;;;3.50;1.33;;;17.30;73.80;;;;;;2258828;63;31312;-69
2022/01/09 19:00:54;;;;;;;1.60;1.40;;;17.20;73.80;;;;;;2259189;63;30280;-69
2022/01/09 19:03:20;;;;;;;1.65;1.13;;;17.20;73.70;;;;;;2259124;63;30435;-70
2022/01/09 19:05:46;;;;;;;1.88;1.10;;;17.20;73.60;;;;;;2259289;62;30050;-69
2022/01/09 19:08:12;;;;;;;1.80;1.08;;;17.20;73.50;;;;;;2258551;63;30200;-69
2022/01/09 19:10:38;;;;;;;1.83;1.48;;;17.20;73.50;;;;;;2258463;63;30132;-69
2022/01/09 19:13:05;;;;;;;2.55;1.20;;;17.20;73.40;;;;;;2258654;63;30169;-68
2022/01/09 19:15:33;;;;;;;2.10;1.40;;;17.20;73.40;;;;;;2258584;63;30152;-69
2022/01/09 19:17:59;;;;;;;2.65;1.17;;;17.20;73.50;;;;;;2258978;63;30215;-68
2022/01/09 19:20:27;;;;;;;3.30;1.20;;;17.20;74.10;;;;;;2259025;62;30163;-68
2022/01/09 19:22:53;;;;;;;1.33;1.05;;;17.20;73.40;;;;;;2258841;63;30363;-68
2022/01/09 19:25:19;;;;;;;2.35;1.02;;;17.20;73.30;;;;;;2258529;62;30209;-68
2022/01/09 19:27:45;;;;;;;1.13;0.90;;;17.20;73.30;;;;;;2259022;63;30321;-69
2022/01/09 19:30:12;;;;;;;1.20;1.05;;;17.20;73.20;;;;;;2258834;63;30269;-68
2022/01/09 19:32:38;;;;;;;2.92;0.98;;;17.20;73.20;;;;;;2258108;63;30449;-68
2022/01/09 19:35:06;;;;;;;7.53;1.60;;;17.20;73.30;;;;;;2259020;63;30235;-75
2022/01/09 19:37:32;;;;;;;1.83;1.30;;;17.20;73.20;;;;;;2255771;63;30324;-74
2022/01/09 19:39:57;;;;;;;2.15;1.33;;;17.20;73.10;;;;;;2251971;63;30186;-74
2022/01/09 19:42:23;;;;;;;1.25;1.15;;;17.30;72.90;;;;;;2255283;63;30194;-73
2022/01/09 19:44:49;;;;;;;0.80;0.80;;;17.30;72.70;;;;;;2251195;63;30235;-73
2022/01/09 19:47:15;;;;;;;2.28;1.23;;;17.30;72.50;;;;;;2250723;63;30784;-74
2022/01/09 19:49:43;;;;;;;3.80;1.00;;;17.30;72.40;;;;;;2250712;63;30404;-73
2022/01/09 19:52:11;;;;;;;2.15;1.30;;;17.40;72.40;;;;;;2251048;63;30156;-74
2022/01/09 19:54:38;;;;;;;3.50;1.17;;;17.40;72.30;;;;;;2250506;63;30258;-73
2022/01/09 19:57:04;;;;;;;1.52;1.00;;;17.50;72.30;;;;;;2250344;63;30896;-75
2022/01/09 19:59:32;;;;;;;1.67;0.98;;;17.50;72.20;;;;;;2243386;63;30148;-75
2022/01/09 20:01:57;;;;;;;3.72;1.17;;;17.50;72.00;;;;;;2250708;63;30116;-76
2022/01/09 20:04:24;;;;;;;2.45;1.10;;;17.40;72.00;;;;;;2250889;63;30563;-75
2022/01/09 20:06:50;;;;;;;2.35;1.30;;;17.40;71.90;;;;;;2250068;63;30999;-75
2022/01/09 20:09:16;;;;;;;3.53;1.33;;;17.40;71.90;;;;;;2250172;63;30263;-75
2022/01/09 20:11:46;;;;;;;3.38;1.17;;;17.40;71.90;;;;;;2250974;63;30272;-76
2022/01/09 20:14:15;;;;;;;2.17;1.05;;;17.50;71.90;;;;;;2256032;63;30271;-76
2022/01/09 20:16:43;;;;;;;1.70;1.38;;;17.50;71.90;;;;;;2251773;63;30655;-77
2022/01/09 20:19:12;;;;;;;3.05;1.42;;;17.50;71.80;;;;;;2258647;63;30340;-76
2022/01/09 20:21:43;;;;;;;2.28;1.33;;;17.60;71.70;;;;;;2258584;63;30211;-77
2022/01/09 20:24:09;;;;;;;1.98;1.20;;;17.50;71.60;;;;;;2251492;63;30838;-76
2022/01/09 20:26:39;;;;;;;2.63;1.30;;;17.60;71.50;;;;;;2258735;63;30989;-77
2022/01/09 20:29:05;;;;;;;1.90;1.38;;;17.60;71.50;;;;;;2251373;63;30481;-76
2022/01/09 20:31:38;;;;;;;1.48;1.30;;;17.60;71.50;;;;;;2258779;63;30117;-76
2022/01/09 20:34:05;;;;;;;3.78;1.35;;;17.60;71.50;;;;;;2251549;63;30856;-76
2022/01/09 20:36:32;;;;;;;1.45;1.05;;;17.50;71.40;;;;;;2258456;62;31083;-77
2022/01/09 20:39:01;;;;;;;2.45;1.48;;;17.60;71.40;;;;;;2258871;63;30319;-76
2022/01/09 20:41:27;;;;;;;1.23;1.13;;;17.50;71.30;;;;;;2258606;63;30289;-77
2022/01/09 20:43:53;;;;;;;1.65;0.95;;;17.60;71.40;;;;;;2258443;63;30364;-77
2022/01/09 20:46:19;;;;;;;2.13;1.27;;;17.60;71.40;;;;;;2258982;62;30325;-77
2022/01/09 20:48:45;;;;;;;2.88;1.25;;;17.60;71.40;;;;;;2251375;63;30916;-79
2022/01/09 20:51:12;;;;;;;1.63;1.10;;;17.60;71.40;;;;;;2251381;62;30095;-77
2022/01/09 20:53:38;;;;;;;2.92;1.30;;;17.50;71.40;;;;;;2251426;63;30239;-77
2022/01/09 20:56:03;;;;;;;1.40;1.10;;;17.50;71.30;;;;;;2251077;63;30273;-73
2022/01/09 20:58:29;;;;;;;2.17;1.40;;;17.50;71.40;;;;;;2260643;62;30242;-76
2022/01/09 21:00:56;;;;;;;2.60;1.40;;;17.50;71.40;;;;;;2252170;62;30303;-74
2022/01/09 21:03:25;;;;;;;3.03;1.20;;;17.50;71.50;;;;;;2252096;62;31214;-73
2022/01/09 21:05:50;;;;;;;3.33;1.70;;;17.50;71.50;;;;;;2263321;62;31072;-73
2022/01/09 21:08:16;;;;;;;2.35;1.33;;;17.50;71.50;;;;;;2259887;62;30304;-73
2022/01/09 21:10:42;;;;;;;2.40;1.50;;;17.50;71.60;;;;;;2259523;63;30102;-74
2022/01/09 21:13:08;;;;;;;1.45;1.05;;;17.50;71.60;;;;;;2259820;63;30366;-75
2022/01/09 21:15:34;;;;;;;3.75;1.45;;;17.50;71.60;;;;;;2259898;63;30210;-73
2022/01/09 21:18:05;;;;;;;2.65;1.45;;;17.50;71.60;;;;;;2259635;63;30336;-74
2022/01/09 21:20:32;;;;;;;1.83;1.40;;;17.40;71.50;;;;;;2253041;63;30377;-73
2022/01/09 21:23:01;;;;;;;1.40;1.27;;;17.40;71.50;;;;;;2246013;63;31230;-73
2022/01/09 21:25:30;;;;;;;3.42;1.30;;;17.40;71.60;;;;;;2259504;63;30206;-72
2022/01/09 21:28:00;;;;;;;3.65;1.40;;;17.40;71.50;;;;;;2252344;63;30284;-73
2022/01/09 21:30:26;;;;;;;1.13;1.02;;;17.40;71.60;;;;;;2266396;62;30176;-74
2022/01/09 21:32:52;;;;;;;1.58;1.35;;;17.40;71.60;;;;;;2260385;62;30238;-74
2022/01/09 21:35:18;;;;;;;1.88;1.20;;;17.40;71.70;;;;;;2268026;62;30032;-75
2022/01/09 21:37:44;;;;;;;1.88;1.30;;;17.40;71.60;;;;;;2267763;62;30316;-75
2022/01/09 21:40:11;;;;;;;2.25;1.20;;;17.40;71.60;;;;;;2267542;62;30365;-75
2022/01/09 21:42:40;;;;;;;1.77;1.25;;;17.40;71.70;;;;;;2267798;62;30142;-75
2022/01/09 21:45:08;;;;;;;2.58;1.58;;;17.40;71.60;;;;;;2259471;62;30170;-75
2022/01/09 21:47:34;;;;;;;2.08;1.33;;;17.40;71.60;;;;;;2267815;62;30559;-75
2022/01/09 21:50:00;;;;;;;1.40;1.30;;;17.40;71.60;;;;;;2267635;62;30582;-73
2022/01/09 21:52:26;;;;;;;2.33;1.40;;;17.40;71.60;;;;;;2260238;62;30230;-74
2022/01/09 21:54:52;;;;;;;2.40;1.60;;;17.40;71.60;;;;;;2267751;62;30247;-74
2022/01/09 21:57:18;;;;;;;2.67;1.17;;;17.40;71.50;;;;;;2267658;62;30155;-74
2022/01/09 21:59:47;;;;;;;1.70;1.30;;;17.40;71.50;;;;;;2267157;62;30306;-74
2022/01/09 22:02:12;;;;;;;2.22;1.65;;;17.40;71.50;;;;;;2267772;62;30190;-75
2022/01/09 22:04:39;;;;;;;2.38;1.30;;;17.40;71.50;;;;;;2265232;62;30183;-74
2022/01/09 22:07:05;;;;;;;2.03;1.23;;;17.40;71.50;;;;;;2252274;62;30409;-73
2022/01/09 22:09:31;;;;;;;2.00;1.70;;;17.40;71.50;;;;;;2253224;63;30281;-74
2022/01/09 22:11:58;;;;;;;4.35;1.70;;;17.40;71.50;;;;;;2260227;63;30304;-68
2022/01/09 22:14:27;;;;;;;2.38;1.50;;;17.40;71.50;;;;;;2251435;63;32028;-69
2022/01/09 22:16:54;;;;;;;2.72;1.42;;;17.40;71.40;;;;;;2252468;63;30244;-68
2022/01/09 22:19:20;;;;;;;15.65;8.05;;;17.40;71.40;;;;;;2251985;63;30947;-72
2022/01/09 22:21:46;;;;;;;74.50;23.77;;;17.40;72.10;;;;;;2251806;63;30438;-72
2022/01/09 22:24:14;;;;;;;46.38;16.45;;;17.30;71.40;;;;;;2252407;63;30240;-72
2022/01/09 22:26:40;;;;;;;42.63;14.02;;;17.30;71.50;;;;;;2252368;63;30383;-70
2022/01/09 22:29:06;;;;;;;31.02;11.35;;;17.30;71.50;;;;;;2252175;63;29897;-70
2022/01/09 22:31:32;;;;;;;32.72;10.20;;;17.20;71.40;;;;;;2252388;63;30062;-73
2022/01/09 22:33:58;;;;;;;25.83;10.05;;;17.20;71.60;;;;;;2252260;63;30148;-70
2022/01/09 22:36:25;;;;;;;24.30;8.70;;;17.20;71.70;;;;;;2252093;63;31727;-73
2022/01/09 22:38:51;;;;;;;26.08;8.20;;;17.10;71.70;;;;;;2252423;63;30314;-69
2022/01/09 22:41:18;;;;;;;18.80;7.60;;;17.00;71.90;;;;;;2251841;63;31252;-71
2022/01/09 22:43:45;;;;;;;21.60;7.78;;;16.90;72.00;;;;;;2251962;63;30311;-70
2022/01/09 22:46:11;;;;;;;22.08;7.47;;;16.80;72.10;;;;;;2252441;63;30133;-70
2022/01/09 22:48:37;;;;;;;18.48;6.80;;;16.70;72.20;;;;;;2245072;63;30175;-70
2022/01/09 22:51:03;;;;;;;20.10;6.68;;;16.60;72.30;;;;;;2252471;63;30141;-70
2022/01/09 22:53:29;;;;;;;19.20;6.35;;;16.50;72.40;;;;;;2252235;63;30861;-70
2022/01/09 22:55:55;;;;;;;15.65;6.18;;;16.40;72.50;;;;;;2252140;63;30712;-70
2022/01/09 22:58:20;;;;;;;15.07;6.45;;;16.40;72.70;;;;;;2252217;63;30003;-70
2022/01/09 23:00:47;;;;;;;14.88;5.30;;;16.30;72.90;;;;;;2252328;63;30128;-70
2022/01/09 23:03:14;;;;;;;14.63;5.75;;;16.20;72.90;;;;;;2251564;63;30386;-70
2022/01/09 23:05:40;;;;;;;17.45;5.72;;;16.20;73.10;;;;;;2252466;63;30240;-70
2022/01/09 23:08:06;;;;;;;14.73;5.57;;;16.10;73.20;;;;;;2252275;63;30158;-70
2022/01/09 23:10:33;;;;;;;13.80;5.22;;;16.00;73.30;;;;;;2252104;63;30299;-70
2022/01/09 23:12:59;;;;;;;11.00;4.85;;;16.00;73.50;;;;;;2252885;63;30103;-70
2022/01/09 23:15:25;;;;;;;10.80;4.18;;;15.90;73.60;;;;;;2260227;63;30217;-70
2022/01/09 23:17:51;;;;;;;13.65;5.35;;;15.90;73.70;;;;;;2252718;63;30297;-70
2022/01/09 23:20:17;;;;;;;11.10;4.68;;;15.80;73.80;;;;;;2253086;63;30328;-70
2022/01/09 23:22:43;;;;;;;10.23;4.38;;;15.80;74.00;;;;;;2252647;63;31077;-70
2022/01/09 23:25:11;;;;;;;12.68;4.57;;;15.70;74.00;;;;;;2259995;63;30877;-70
2022/01/09 23:27:37;;;;;;;13.23;4.40;;;15.70;74.10;;;;;;2260184;63;30022;-70
2022/01/09 23:30:06;;;;;;;11.70;3.90;;;15.60;74.20;;;;;;2260284;63;30243;-70
2022/01/09 23:32:32;;;;;;;13.35;4.45;;;15.50;74.30;;;;;;2259958;63;30237;-70
2022/01/09 23:34:58;;;;;;;8.65;4.13;;;15.50;74.40;;;;;;2260051;63;30188;-70
2022/01/09 23:37:32;;;;;;;10.93;4.15;;;15.50;74.50;;;;;;2260084;63;30270;-70
2022/01/09 23:39:59;;;;;;;8.15;3.63;;;15.40;74.50;;;;;;2259916;63;30270;-70
2022/01/09 23:42:26;;;;;;;8.85;3.75;;;15.30;74.60;;;;;;2246345;63;30883;-70
2022/01/09 23:44:57;;;;;;;13.00;4.35;;;15.30;74.80;;;;;;2252473;63;30612;-70
2022/01/09 23:47:26;;;;;;;9.63;3.72;;;15.30;74.80;;;;;;2260233;63;30237;-70
2022/01/09 23:52:37;;;;;;;8.10;3.72;;;15.20;74.90;;;;;;2259866;63;31095;-70
2022/01/09 23:55:07;;;;;;;10.52;3.75;;;15.20;75.00;;;;;;2260076;63;30606;-70
2022/01/09 23:57:33;;;;;;;10.20;3.28;;;15.10;75.20;;;;;;2260084;63;30424;-70
